KLM23N EHAM-EFHK
Flight info
| Callsign | KLM23N |
|---|---|
| Flight time | 2h 0m |
| Altitude | 37000 |
| Route | ANDIK N873 JUIST DCT DOSUR DCT RASMU DCT ROGMI DCT ALAMI DCT OKEVU DCT EVADI Y370 DIVAM |
| Aircraft | A21N/M-SDE3FGHIRWY/LB1 |
Departure
| Time | 2026-05-07 16:29 |
|---|---|
| Airport | Amsterdam Airport Schiphol (EHAM) |
Arrival
| Time | 2026-05-07 18:29 |
|---|---|
| Airport | Helsinki Vantaa Airport (EFHK) |
| Time | Latitude | Longitude | Altitude | Speed | Heading |
|---|---|---|---|---|---|
| 2026-05-07 16:13 | 52.30578 | 4.76698 | 5 ft | 0 kts | 216° |
| 2026-05-07 16:18 | 52.30580 | 4.76700 | 6 ft | 2 kts | 217° |
| 2026-05-07 16:19 | 52.30590 | 4.76718 | 6 ft | 2 kts | 231° |
| 2026-05-07 16:19 | 52.30600 | 4.76736 | 6 ft | 2 kts | 225° |
| 2026-05-07 16:19 | 52.30610 | 4.76753 | 7 ft | 2 kts | 227° |
| 2026-05-07 16:19 | 52.30620 | 4.76771 | 7 ft | 2 kts | 226° |
| 2026-05-07 16:20 | 52.30625 | 4.76780 | 7 ft | 0 kts | 209° |
| 2026-05-07 16:20 | 52.30631 | 4.76781 | 7 ft | 0 kts | 153° |
| 2026-05-07 16:20 | 52.30635 | 4.76776 | 7 ft | 1 kts | 132° |
| 2026-05-07 16:20 | 52.30637 | 4.76772 | 8 ft | 0 kts | 136° |
| 2026-05-07 16:22 | 52.30636 | 4.76775 | 7 ft | 1 kts | 136° |
| 2026-05-07 16:22 | 52.30619 | 4.76801 | 7 ft | 5 kts | 131° |
| 2026-05-07 16:23 | 52.30589 | 4.76875 | 6 ft | 10 kts | 125° |
| 2026-05-07 16:23 | 52.30504 | 4.76966 | 2 ft | 16 kts | 168° |
| 2026-05-07 16:23 | 52.30423 | 4.76855 | 1 ft | 16 kts | 239° |
| 2026-05-07 16:23 | 52.30363 | 4.76699 | 0 ft | 16 kts | 237° |
| 2026-05-07 16:24 | 52.30304 | 4.76544 | -1 ft | 16 kts | 238° |
| 2026-05-07 16:24 | 52.30248 | 4.76401 | 1 ft | 14 kts | 237° |
| 2026-05-07 16:24 | 52.30192 | 4.76253 | 0 ft | 16 kts | 238° |
| 2026-05-07 16:24 | 52.30126 | 4.76082 | 1 ft | 17 kts | 237° |
| 2026-05-07 16:25 | 52.30059 | 4.75905 | 0 ft | 19 kts | 238° |
| 2026-05-07 16:25 | 52.29985 | 4.75710 | 0 ft | 21 kts | 239° |
| 2026-05-07 16:25 | 52.29910 | 4.75516 | 0 ft | 18 kts | 238° |
| 2026-05-07 16:25 | 52.29843 | 4.75339 | 0 ft | 18 kts | 244° |
| 2026-05-07 16:26 | 52.29857 | 4.75167 | 2 ft | 14 kts | 309° |
| 2026-05-07 16:26 | 52.29921 | 4.75046 | 2 ft | 13 kts | 310° |
| 2026-05-07 16:26 | 52.29985 | 4.74926 | 2 ft | 14 kts | 313° |
| 2026-05-07 16:26 | 52.30059 | 4.74790 | 0 ft | 18 kts | 311° |
| 2026-05-07 16:27 | 52.30159 | 4.74606 | -4 ft | 24 kts | 312° |
| 2026-05-07 16:27 | 52.30277 | 4.74385 | -9 ft | 26 kts | 310° |
| 2026-05-07 16:27 | 52.30370 | 4.74182 | -12 ft | 19 kts | 280° |
| 2026-05-07 16:27 | 52.30309 | 4.74013 | -10 ft | 17 kts | 219° |
| 2026-05-07 16:28 | 52.30204 | 4.73890 | -11 ft | 18 kts | 230° |
| 2026-05-07 16:28 | 52.30214 | 4.73745 | -8 ft | 13 kts | 342° |
| 2026-05-07 16:28 | 52.30379 | 4.73752 | -8 ft | 53 kts | 4° |
| 2026-05-07 16:28 | 52.31049 | 4.73811 | -5 ft | 136 kts | 4° |
| 2026-05-07 16:29 | 52.32206 | 4.73917 | 207 ft | 182 kts | 5° |
| 2026-05-07 16:29 | 52.33488 | 4.74097 | 914 ft | 197 kts | 12° |
| 2026-05-07 16:29 | 52.34866 | 4.74812 | 1555 ft | 222 kts | 22° |
| 2026-05-07 16:29 | 52.36385 | 4.75850 | 2062 ft | 251 kts | 25° |
| 2026-05-07 16:30 | 52.37897 | 4.77227 | 2587 ft | 256 kts | 37° |
| 2026-05-07 16:30 | 52.39240 | 4.79171 | 3510 ft | 263 kts | 45° |
| 2026-05-07 16:30 | 52.40493 | 4.81272 | 4661 ft | 261 kts | 46° |
| 2026-05-07 16:30 | 52.41761 | 4.83406 | 5647 ft | 265 kts | 46° |
| 2026-05-07 16:31 | 52.43127 | 4.85382 | 6528 ft | 271 kts | 29° |
| 2026-05-07 16:31 | 52.44932 | 4.86261 | 7429 ft | 276 kts | 2° |
| 2026-05-07 16:31 | 52.46825 | 4.86120 | 8314 ft | 280 kts | 356° |
| 2026-05-07 16:31 | 52.48780 | 4.85890 | 9175 ft | 284 kts | 356° |
| 2026-05-07 16:32 | 52.50748 | 4.85675 | 10014 ft | 288 kts | 356° |
| 2026-05-07 16:32 | 52.52759 | 4.85714 | 10706 ft | 297 kts | 11° |
| 2026-05-07 16:32 | 52.54693 | 4.87048 | 11129 ft | 314 kts | 35° |
| 2026-05-07 16:32 | 52.56234 | 4.89658 | 11643 ft | 328 kts | 52° |
| 2026-05-07 16:33 | 52.57614 | 4.92642 | 12397 ft | 333 kts | 52° |
| 2026-05-07 16:33 | 52.59038 | 4.95688 | 13170 ft | 337 kts | 51° |
| 2026-05-07 16:33 | 52.60460 | 4.98684 | 13918 ft | 340 kts | 51° |
| 2026-05-07 16:33 | 52.61943 | 5.01788 | 14650 ft | 345 kts | 51° |
| 2026-05-07 16:34 | 52.63414 | 5.04864 | 15331 ft | 350 kts | 51° |
| 2026-05-07 16:34 | 52.64932 | 5.08041 | 16008 ft | 355 kts | 51° |
| 2026-05-07 16:34 | 52.66461 | 5.11249 | 16678 ft | 360 kts | 51° |
| 2026-05-07 16:34 | 52.67987 | 5.14454 | 17347 ft | 363 kts | 51° |
| 2026-05-07 16:35 | 52.69561 | 5.17766 | 18026 ft | 367 kts | 51° |
| 2026-05-07 16:35 | 52.71130 | 5.21070 | 18681 ft | 371 kts | 51° |
| 2026-05-07 16:35 | 52.72714 | 5.24410 | 19295 ft | 375 kts | 51° |
| 2026-05-07 16:35 | 52.74330 | 5.27817 | 19915 ft | 379 kts | 51° |
| 2026-05-07 16:36 | 52.75943 | 5.31218 | 20526 ft | 382 kts | 51° |
| 2026-05-07 16:36 | 52.77587 | 5.34688 | 21131 ft | 385 kts | 51° |
| 2026-05-07 16:36 | 52.79227 | 5.38152 | 21706 ft | 388 kts | 51° |
| 2026-05-07 16:36 | 52.80897 | 5.41685 | 22267 ft | 392 kts | 51° |
| 2026-05-07 16:37 | 52.82584 | 5.45262 | 22816 ft | 395 kts | 51° |
| 2026-05-07 16:37 | 52.84256 | 5.48817 | 23346 ft | 399 kts | 51° |
| 2026-05-07 16:37 | 52.85975 | 5.52477 | 23869 ft | 402 kts | 51° |
| 2026-05-07 16:37 | 52.87684 | 5.56124 | 24373 ft | 405 kts | 51° |
| 2026-05-07 16:38 | 52.89397 | 5.59785 | 24865 ft | 408 kts | 51° |
| 2026-05-07 16:38 | 52.91134 | 5.63502 | 25353 ft | 411 kts | 51° |
| 2026-05-07 16:38 | 52.92880 | 5.67245 | 25834 ft | 414 kts | 52° |
| 2026-05-07 16:38 | 52.94645 | 5.71032 | 26313 ft | 416 kts | 52° |
| 2026-05-07 16:39 | 52.96407 | 5.74822 | 26783 ft | 418 kts | 52° |
| 2026-05-07 16:39 | 52.98181 | 5.78641 | 27252 ft | 421 kts | 52° |
| 2026-05-07 16:39 | 52.99955 | 5.82470 | 27699 ft | 423 kts | 52° |
| 2026-05-07 16:39 | 53.01760 | 5.86365 | 28145 ft | 425 kts | 52° |
| 2026-05-07 16:40 | 53.03547 | 5.90227 | 28579 ft | 427 kts | 52° |
| 2026-05-07 16:40 | 53.05374 | 5.94185 | 29016 ft | 428 kts | 52° |
| 2026-05-07 16:40 | 53.07178 | 5.98103 | 29423 ft | 430 kts | 52° |
| 2026-05-07 16:40 | 53.08979 | 6.02022 | 29813 ft | 432 kts | 52° |
| 2026-05-07 16:41 | 53.10830 | 6.06050 | 30229 ft | 434 kts | 52° |
| 2026-05-07 16:41 | 53.12648 | 6.10004 | 30629 ft | 436 kts | 52° |
| 2026-05-07 16:41 | 53.14496 | 6.14029 | 31002 ft | 438 kts | 52° |
| 2026-05-07 16:41 | 53.16332 | 6.18035 | 31363 ft | 439 kts | 52° |
| 2026-05-07 16:42 | 53.18176 | 6.22071 | 31720 ft | 441 kts | 52° |
| 2026-05-07 16:42 | 53.20041 | 6.26162 | 32120 ft | 441 kts | 53° |
| 2026-05-07 16:42 | 53.21881 | 6.30209 | 32528 ft | 439 kts | 53° |
| 2026-05-07 16:42 | 53.23695 | 6.34213 | 32933 ft | 437 kts | 52° |
| 2026-05-07 16:43 | 53.25519 | 6.38242 | 33337 ft | 434 kts | 52° |
| 2026-05-07 16:43 | 53.27336 | 6.42262 | 33735 ft | 432 kts | 52° |
| 2026-05-07 16:43 | 53.29120 | 6.46213 | 34134 ft | 430 kts | 52° |
| 2026-05-07 16:43 | 53.30918 | 6.50198 | 34521 ft | 428 kts | 52° |
| 2026-05-07 16:44 | 53.32700 | 6.54103 | 34880 ft | 426 kts | 51° |
| 2026-05-07 16:44 | 53.34598 | 6.57884 | 35232 ft | 425 kts | 47° |
| 2026-05-07 16:44 | 53.36609 | 6.61471 | 35523 ft | 424 kts | 44° |
| 2026-05-07 16:44 | 53.38740 | 6.64895 | 35758 ft | 424 kts | 42° |
| 2026-05-07 16:45 | 53.40900 | 6.68232 | 35968 ft | 425 kts | 43° |
| 2026-05-07 16:45 | 53.43083 | 6.71579 | 36175 ft | 426 kts | 43° |
| 2026-05-07 16:45 | 53.45277 | 6.74950 | 36302 ft | 427 kts | 43° |
| 2026-05-07 16:46 | 53.49656 | 6.81702 | 36491 ft | 430 kts | 43° |
| 2026-05-07 16:46 | 53.54035 | 6.88485 | 36663 ft | 432 kts | 43° |
| 2026-05-07 16:47 | 53.58408 | 6.95488 | 36835 ft | 435 kts | 44° |
| 2026-05-07 16:47 | 53.62680 | 7.02649 | 37002 ft | 437 kts | 45° |
| 2026-05-07 16:48 | 53.67002 | 7.09935 | 37079 ft | 440 kts | 45° |
| 2026-05-07 16:48 | 53.71343 | 7.17272 | 37083 ft | 442 kts | 45° |
| 2026-05-07 16:49 | 53.75648 | 7.24568 | 37086 ft | 442 kts | 45° |
| 2026-05-07 16:49 | 53.79997 | 7.31958 | 37090 ft | 443 kts | 45° |
| 2026-05-07 16:50 | 53.84317 | 7.39323 | 37091 ft | 443 kts | 45° |
| 2026-05-07 16:50 | 53.88632 | 7.46701 | 37090 ft | 444 kts | 45° |
| 2026-05-07 16:51 | 53.92961 | 7.54126 | 37090 ft | 444 kts | 45° |
| 2026-05-07 16:51 | 53.97284 | 7.61563 | 37091 ft | 444 kts | 45° |
| 2026-05-07 16:52 | 54.01600 | 7.69019 | 37092 ft | 444 kts | 45° |
| 2026-05-07 16:52 | 54.05933 | 7.76517 | 37095 ft | 444 kts | 45° |
| 2026-05-07 16:53 | 54.10242 | 7.83999 | 37096 ft | 444 kts | 45° |
| 2026-05-07 16:53 | 54.14524 | 7.91459 | 37092 ft | 444 kts | 45° |
| 2026-05-07 16:54 | 54.18833 | 7.98990 | 37090 ft | 444 kts | 45° |
| 2026-05-07 16:54 | 54.23126 | 8.06518 | 37091 ft | 444 kts | 45° |
| 2026-05-07 16:55 | 54.27433 | 8.14096 | 37094 ft | 444 kts | 45° |
| 2026-05-07 16:55 | 54.31691 | 8.21611 | 37097 ft | 444 kts | 45° |
| 2026-05-07 16:56 | 54.35984 | 8.29213 | 37101 ft | 444 kts | 45° |
| 2026-05-07 16:56 | 54.42391 | 8.40604 | 37107 ft | 444 kts | 45° |
| 2026-05-07 16:57 | 54.46660 | 8.48223 | 37110 ft | 445 kts | 45° |
| 2026-05-07 16:57 | 54.50930 | 8.55868 | 37114 ft | 445 kts | 45° |
| 2026-05-07 16:58 | 54.55185 | 8.63510 | 37119 ft | 445 kts | 45° |
| 2026-05-07 16:58 | 54.59473 | 8.71238 | 37122 ft | 446 kts | 46° |
| 2026-05-07 16:59 | 54.63747 | 8.78966 | 37123 ft | 446 kts | 46° |
| 2026-05-07 16:59 | 54.67997 | 8.86676 | 37123 ft | 446 kts | 46° |
| 2026-05-07 17:00 | 54.72247 | 8.94411 | 37123 ft | 446 kts | 46° |
| 2026-05-07 17:00 | 54.76501 | 9.02184 | 37121 ft | 446 kts | 46° |
| 2026-05-07 17:01 | 54.80750 | 9.09975 | 37121 ft | 447 kts | 46° |
| 2026-05-07 17:01 | 54.84998 | 9.17819 | 37119 ft | 447 kts | 47° |
| 2026-05-07 17:02 | 54.88926 | 9.26091 | 37119 ft | 447 kts | 51° |
| 2026-05-07 17:02 | 54.92752 | 9.34620 | 37117 ft | 448 kts | 51° |
| 2026-05-07 17:03 | 54.96558 | 9.43146 | 37114 ft | 448 kts | 51° |
| 2026-05-07 17:03 | 55.00351 | 9.51659 | 37116 ft | 448 kts | 51° |
| 2026-05-07 17:04 | 55.04157 | 9.60228 | 37123 ft | 448 kts | 51° |
| 2026-05-07 17:04 | 55.07962 | 9.68822 | 37129 ft | 448 kts | 52° |
| 2026-05-07 17:05 | 55.11755 | 9.77420 | 37132 ft | 449 kts | 52° |
| 2026-05-07 17:05 | 55.15523 | 9.85987 | 37134 ft | 449 kts | 52° |
| 2026-05-07 17:06 | 55.19316 | 9.94642 | 37135 ft | 449 kts | 52° |
| 2026-05-07 17:06 | 55.23075 | 10.03250 | 37136 ft | 449 kts | 52° |
| 2026-05-07 17:07 | 55.26844 | 10.11910 | 37137 ft | 448 kts | 52° |
| 2026-05-07 17:07 | 55.30621 | 10.20620 | 37128 ft | 449 kts | 52° |
| 2026-05-07 17:08 | 55.34383 | 10.29329 | 37126 ft | 449 kts | 52° |
| 2026-05-07 17:08 | 55.38117 | 10.38002 | 37133 ft | 449 kts | 52° |
| 2026-05-07 17:09 | 55.41876 | 10.46765 | 37136 ft | 449 kts | 52° |
| 2026-05-07 17:09 | 55.45621 | 10.55526 | 37135 ft | 449 kts | 52° |
| 2026-05-07 17:10 | 55.49343 | 10.64264 | 37136 ft | 449 kts | 52° |
| 2026-05-07 17:10 | 55.53083 | 10.73073 | 37134 ft | 449 kts | 52° |
| 2026-05-07 17:11 | 55.56811 | 10.81888 | 37134 ft | 449 kts | 52° |
| 2026-05-07 17:11 | 55.60525 | 10.90695 | 37133 ft | 450 kts | 52° |
| 2026-05-07 17:12 | 55.64241 | 10.99541 | 37133 ft | 450 kts | 52° |
| 2026-05-07 17:12 | 55.67965 | 11.08441 | 37133 ft | 450 kts | 52° |
| 2026-05-07 17:13 | 55.71662 | 11.17307 | 37132 ft | 450 kts | 52° |
| 2026-05-07 17:13 | 55.75365 | 11.26222 | 37134 ft | 450 kts | 52° |
| 2026-05-07 17:14 | 55.79079 | 11.35195 | 37134 ft | 451 kts | 52° |
| 2026-05-07 17:14 | 55.82766 | 11.44137 | 37136 ft | 451 kts | 52° |
| 2026-05-07 17:15 | 55.86438 | 11.53077 | 37136 ft | 451 kts | 52° |
| 2026-05-07 17:15 | 55.90118 | 11.62067 | 37138 ft | 451 kts | 52° |
| 2026-05-07 17:16 | 55.93780 | 11.71046 | 37138 ft | 451 kts | 53° |
| 2026-05-07 17:16 | 55.97449 | 11.80077 | 37138 ft | 451 kts | 53° |
| 2026-05-07 17:17 | 56.01114 | 11.89131 | 37137 ft | 451 kts | 53° |
| 2026-05-07 17:17 | 56.04778 | 11.98213 | 37136 ft | 451 kts | 53° |
| 2026-05-07 17:18 | 56.08413 | 12.07259 | 37135 ft | 451 kts | 53° |
| 2026-05-07 17:18 | 56.12057 | 12.16359 | 37131 ft | 451 kts | 53° |
| 2026-05-07 17:19 | 56.15692 | 12.25473 | 37128 ft | 451 kts | 53° |
| 2026-05-07 17:19 | 56.19313 | 12.34586 | 37125 ft | 451 kts | 53° |
| 2026-05-07 17:20 | 56.22931 | 12.43724 | 37124 ft | 451 kts | 53° |
| 2026-05-07 17:20 | 56.26554 | 12.52913 | 37120 ft | 451 kts | 53° |
| 2026-05-07 17:21 | 56.30164 | 12.62100 | 37116 ft | 452 kts | 53° |
| 2026-05-07 17:21 | 56.33781 | 12.71343 | 37111 ft | 453 kts | 53° |
| 2026-05-07 17:22 | 56.37474 | 12.80815 | 37107 ft | 454 kts | 53° |
| 2026-05-07 17:22 | 56.41127 | 12.90218 | 37104 ft | 455 kts | 53° |
| 2026-05-07 17:23 | 56.44759 | 12.99604 | 37102 ft | 456 kts | 53° |
| 2026-05-07 17:23 | 56.48376 | 13.08988 | 37100 ft | 457 kts | 53° |
| 2026-05-07 17:24 | 56.51973 | 13.18364 | 37099 ft | 457 kts | 53° |
| 2026-05-07 17:24 | 56.55579 | 13.27799 | 37098 ft | 458 kts | 53° |
| 2026-05-07 17:25 | 56.59211 | 13.37336 | 37098 ft | 459 kts | 53° |
| 2026-05-07 17:25 | 56.62828 | 13.46869 | 37098 ft | 459 kts | 53° |
| 2026-05-07 17:26 | 56.66428 | 13.56397 | 37097 ft | 459 kts | 54° |
| 2026-05-07 17:26 | 56.70011 | 13.65921 | 37097 ft | 460 kts | 54° |
| 2026-05-07 17:27 | 56.73606 | 13.75521 | 37096 ft | 461 kts | 54° |
| 2026-05-07 17:27 | 56.77201 | 13.85141 | 37095 ft | 461 kts | 54° |
| 2026-05-07 17:28 | 56.80780 | 13.94727 | 37090 ft | 461 kts | 54° |
| 2026-05-07 17:28 | 56.84378 | 14.04416 | 37086 ft | 461 kts | 54° |
| 2026-05-07 17:29 | 56.87951 | 14.14084 | 37082 ft | 462 kts | 54° |
| 2026-05-07 17:29 | 56.91536 | 14.23823 | 37071 ft | 463 kts | 54° |
| 2026-05-07 17:30 | 56.95105 | 14.33555 | 37074 ft | 465 kts | 54° |
| 2026-05-07 17:30 | 56.98714 | 14.43432 | 37085 ft | 466 kts | 54° |
| 2026-05-07 17:31 | 57.02297 | 14.53283 | 37085 ft | 466 kts | 54° |
| 2026-05-07 17:31 | 57.05870 | 14.63151 | 37083 ft | 467 kts | 54° |
| 2026-05-07 17:32 | 57.09444 | 14.73064 | 37082 ft | 467 kts | 55° |
| 2026-05-07 17:32 | 57.13013 | 14.83006 | 37081 ft | 468 kts | 55° |
| 2026-05-07 17:33 | 57.16576 | 14.92970 | 37081 ft | 468 kts | 55° |
| 2026-05-07 17:33 | 57.20143 | 15.03001 | 37081 ft | 469 kts | 55° |
| 2026-05-07 17:34 | 57.23695 | 15.13039 | 37082 ft | 470 kts | 55° |
| 2026-05-07 17:34 | 57.27262 | 15.23151 | 37083 ft | 471 kts | 55° |
| 2026-05-07 17:35 | 57.30800 | 15.33206 | 37084 ft | 471 kts | 55° |
| 2026-05-07 17:35 | 57.34349 | 15.43339 | 37085 ft | 471 kts | 55° |
| 2026-05-07 17:36 | 57.37899 | 15.53517 | 37088 ft | 472 kts | 55° |
| 2026-05-07 17:36 | 57.41446 | 15.63732 | 37091 ft | 472 kts | 55° |
| 2026-05-07 17:37 | 57.44989 | 15.73979 | 37095 ft | 474 kts | 56° |
| 2026-05-07 17:37 | 57.48526 | 15.84250 | 37098 ft | 474 kts | 56° |
| 2026-05-07 17:38 | 57.52055 | 15.94545 | 37100 ft | 475 kts | 56° |
| 2026-05-07 17:38 | 57.55588 | 16.04896 | 37100 ft | 475 kts | 56° |
| 2026-05-07 17:39 | 57.59100 | 16.15230 | 37099 ft | 476 kts | 56° |
| 2026-05-07 17:39 | 57.62622 | 16.25638 | 37098 ft | 476 kts | 56° |
| 2026-05-07 17:40 | 57.66140 | 16.36080 | 37100 ft | 477 kts | 56° |
| 2026-05-07 17:40 | 57.69649 | 16.46544 | 37108 ft | 477 kts | 56° |
| 2026-05-07 17:41 | 57.73175 | 16.57103 | 37116 ft | 477 kts | 56° |
| 2026-05-07 17:41 | 57.76691 | 16.67680 | 37122 ft | 478 kts | 57° |
| 2026-05-07 17:42 | 57.80178 | 16.78219 | 37127 ft | 478 kts | 57° |
| 2026-05-07 17:42 | 57.83673 | 16.88831 | 37129 ft | 478 kts | 57° |
| 2026-05-07 17:43 | 57.87129 | 16.99369 | 37130 ft | 478 kts | 57° |
| 2026-05-07 17:43 | 57.90610 | 17.10032 | 37133 ft | 479 kts | 57° |
| 2026-05-07 17:44 | 57.94058 | 17.20640 | 37138 ft | 479 kts | 57° |
| 2026-05-07 17:44 | 57.97511 | 17.31319 | 37140 ft | 480 kts | 57° |
| 2026-05-07 17:45 | 58.00975 | 17.42087 | 37138 ft | 480 kts | 57° |
| 2026-05-07 17:45 | 58.04415 | 17.52826 | 37129 ft | 481 kts | 57° |
| 2026-05-07 17:46 | 58.07846 | 17.63581 | 37128 ft | 482 kts | 57° |
| 2026-05-07 17:46 | 58.11290 | 17.74416 | 37139 ft | 482 kts | 58° |
| 2026-05-07 17:47 | 58.14713 | 17.85243 | 37143 ft | 483 kts | 58° |
| 2026-05-07 17:47 | 58.18134 | 17.96124 | 37143 ft | 482 kts | 58° |
| 2026-05-07 17:48 | 58.21558 | 18.07071 | 37143 ft | 482 kts | 58° |
| 2026-05-07 17:48 | 58.24934 | 18.17948 | 37141 ft | 482 kts | 58° |
| 2026-05-07 17:49 | 58.28317 | 18.28905 | 37141 ft | 483 kts | 58° |
| 2026-05-07 17:49 | 58.31690 | 18.39885 | 37137 ft | 483 kts | 58° |
| 2026-05-07 17:50 | 58.35057 | 18.50896 | 37135 ft | 483 kts | 58° |
| 2026-05-07 17:50 | 58.38409 | 18.61907 | 37129 ft | 483 kts | 58° |
| 2026-05-07 17:51 | 58.41765 | 18.72982 | 37126 ft | 485 kts | 59° |
| 2026-05-07 17:51 | 58.45128 | 18.84136 | 37125 ft | 486 kts | 59° |
| 2026-05-07 17:52 | 58.48459 | 18.95242 | 37125 ft | 487 kts | 59° |
| 2026-05-07 17:52 | 58.51823 | 19.06510 | 37126 ft | 488 kts | 59° |
| 2026-05-07 17:53 | 58.55161 | 19.17740 | 37128 ft | 489 kts | 59° |
| 2026-05-07 17:53 | 58.58493 | 19.29008 | 37131 ft | 489 kts | 59° |
| 2026-05-07 17:54 | 58.61828 | 19.40343 | 37133 ft | 490 kts | 59° |
| 2026-05-07 17:54 | 58.65144 | 19.51667 | 37137 ft | 490 kts | 59° |
| 2026-05-07 17:55 | 58.68465 | 19.63060 | 37138 ft | 490 kts | 59° |
| 2026-05-07 17:55 | 58.71776 | 19.74479 | 37138 ft | 491 kts | 60° |
| 2026-05-07 17:56 | 58.75074 | 19.85911 | 37137 ft | 491 kts | 60° |
| 2026-05-07 17:56 | 58.78377 | 19.97419 | 37135 ft | 491 kts | 60° |
| 2026-05-07 17:57 | 58.81111 | 20.06988 | 37135 ft | 491 kts | 60° |
| 2026-05-07 17:57 | 58.84923 | 20.20392 | 37122 ft | 492 kts | 60° |
| 2026-05-07 17:58 | 58.88197 | 20.31973 | 37118 ft | 493 kts | 60° |
| 2026-05-07 17:58 | 58.91457 | 20.43568 | 37119 ft | 493 kts | 60° |
| 2026-05-07 17:59 | 58.94706 | 20.55181 | 37119 ft | 493 kts | 60° |
| 2026-05-07 17:59 | 58.97944 | 20.66807 | 37118 ft | 493 kts | 61° |
| 2026-05-07 18:00 | 59.01168 | 20.78452 | 37121 ft | 494 kts | 61° |
| 2026-05-07 18:00 | 59.04431 | 20.90182 | 37122 ft | 494 kts | 59° |
| 2026-05-07 18:01 | 59.08013 | 21.01496 | 37124 ft | 494 kts | 56° |
| 2026-05-07 18:01 | 59.11632 | 21.12712 | 37125 ft | 494 kts | 57° |
| 2026-05-07 18:02 | 59.17030 | 21.29755 | 37129 ft | 494 kts | 57° |
| 2026-05-07 18:03 | 59.20604 | 21.41170 | 37128 ft | 494 kts | 57° |
| 2026-05-07 18:03 | 59.24162 | 21.52598 | 37125 ft | 495 kts | 57° |
| 2026-05-07 18:04 | 59.27709 | 21.64049 | 37121 ft | 495 kts | 57° |
| 2026-05-07 18:04 | 59.31228 | 21.75463 | 37117 ft | 495 kts | 58° |
| 2026-05-07 18:05 | 59.34766 | 21.87001 | 37115 ft | 495 kts | 58° |
| 2026-05-07 18:05 | 59.38291 | 21.98550 | 37114 ft | 496 kts | 58° |
| 2026-05-07 18:05 | 59.40041 | 22.04304 | 36983 ft | 498 kts | 58° |
| 2026-05-07 18:06 | 59.41808 | 22.10128 | 36442 ft | 500 kts | 58° |
| 2026-05-07 18:06 | 59.43583 | 22.15997 | 35871 ft | 502 kts | 58° |
| 2026-05-07 18:06 | 59.45351 | 22.21854 | 35263 ft | 506 kts | 58° |
| 2026-05-07 18:06 | 59.47145 | 22.27816 | 34583 ft | 509 kts | 58° |
| 2026-05-07 18:07 | 59.48918 | 22.33724 | 33843 ft | 507 kts | 58° |
| 2026-05-07 18:07 | 59.50709 | 22.39703 | 33010 ft | 505 kts | 58° |
| 2026-05-07 18:07 | 59.52455 | 22.45550 | 32267 ft | 498 kts | 58° |
| 2026-05-07 18:07 | 59.54182 | 22.51351 | 31451 ft | 492 kts | 58° |
| 2026-05-07 18:08 | 59.55895 | 22.57111 | 30812 ft | 494 kts | 58° |
| 2026-05-07 18:08 | 59.57637 | 22.62985 | 30181 ft | 495 kts | 58° |
| 2026-05-07 18:08 | 59.59347 | 22.68764 | 29462 ft | 496 kts | 59° |
| 2026-05-07 18:08 | 59.61087 | 22.74661 | 28729 ft | 497 kts | 59° |
| 2026-05-07 18:09 | 59.62804 | 22.80499 | 28001 ft | 497 kts | 59° |
| 2026-05-07 18:09 | 59.64539 | 22.86410 | 27378 ft | 493 kts | 59° |
| 2026-05-07 18:09 | 59.66207 | 22.92123 | 26916 ft | 481 kts | 59° |
| 2026-05-07 18:09 | 59.67865 | 22.97820 | 26454 ft | 470 kts | 58° |
| 2026-05-07 18:10 | 59.69465 | 23.03328 | 26007 ft | 462 kts | 58° |
| 2026-05-07 18:10 | 59.71052 | 23.08795 | 25613 ft | 459 kts | 58° |
| 2026-05-07 18:10 | 59.72639 | 23.14260 | 25328 ft | 457 kts | 57° |
| 2026-05-07 18:10 | 59.74215 | 23.19694 | 25034 ft | 455 kts | 58° |
| 2026-05-07 18:11 | 59.75776 | 23.25093 | 24683 ft | 453 kts | 58° |
| 2026-05-07 18:11 | 59.77334 | 23.30503 | 24264 ft | 450 kts | 58° |
| 2026-05-07 18:11 | 59.78860 | 23.35815 | 23826 ft | 447 kts | 58° |
| 2026-05-07 18:11 | 59.80385 | 23.41137 | 23377 ft | 445 kts | 58° |
| 2026-05-07 18:12 | 59.81909 | 23.46466 | 22920 ft | 442 kts | 58° |
| 2026-05-07 18:12 | 59.83406 | 23.51717 | 22464 ft | 440 kts | 58° |
| 2026-05-07 18:12 | 59.84912 | 23.57012 | 22007 ft | 437 kts | 58° |
| 2026-05-07 18:12 | 59.86390 | 23.62223 | 21567 ft | 434 kts | 57° |
| 2026-05-07 18:13 | 59.87851 | 23.67379 | 21130 ft | 430 kts | 58° |
| 2026-05-07 18:13 | 59.89316 | 23.72565 | 20692 ft | 427 kts | 58° |
| 2026-05-07 18:13 | 59.90752 | 23.77662 | 20265 ft | 423 kts | 58° |
| 2026-05-07 18:13 | 59.92175 | 23.82722 | 19827 ft | 420 kts | 58° |
| 2026-05-07 18:14 | 59.93586 | 23.87753 | 19381 ft | 417 kts | 58° |
| 2026-05-07 18:14 | 59.94995 | 23.92784 | 18945 ft | 413 kts | 58° |
| 2026-05-07 18:14 | 59.96381 | 23.97744 | 18521 ft | 409 kts | 58° |
| 2026-05-07 18:14 | 59.97749 | 24.02648 | 18101 ft | 406 kts | 57° |
| 2026-05-07 18:15 | 59.99113 | 24.07548 | 17680 ft | 402 kts | 57° |
| 2026-05-07 18:15 | 60.00451 | 24.12366 | 17264 ft | 399 kts | 57° |
| 2026-05-07 18:15 | 60.01776 | 24.17149 | 16846 ft | 395 kts | 57° |
| 2026-05-07 18:15 | 60.03098 | 24.21928 | 16429 ft | 392 kts | 57° |
| 2026-05-07 18:16 | 60.04415 | 24.26699 | 16010 ft | 389 kts | 57° |
| 2026-05-07 18:16 | 60.05709 | 24.31397 | 15595 ft | 385 kts | 57° |
| 2026-05-07 18:16 | 60.06991 | 24.36058 | 15179 ft | 382 kts | 57° |
| 2026-05-07 18:16 | 60.08248 | 24.40638 | 14767 ft | 379 kts | 57° |
| 2026-05-07 18:17 | 60.09518 | 24.45265 | 14346 ft | 375 kts | 58° |
| 2026-05-07 18:17 | 60.10757 | 24.49801 | 13930 ft | 372 kts | 58° |
| 2026-05-07 18:17 | 60.11982 | 24.54306 | 13515 ft | 368 kts | 58° |
| 2026-05-07 18:17 | 60.13190 | 24.58748 | 13098 ft | 365 kts | 58° |
| 2026-05-07 18:18 | 60.14404 | 24.63219 | 12675 ft | 361 kts | 58° |
| 2026-05-07 18:18 | 60.15585 | 24.67579 | 12256 ft | 358 kts | 59° |
| 2026-05-07 18:18 | 60.16770 | 24.71972 | 11832 ft | 354 kts | 59° |
| 2026-05-07 18:18 | 60.17927 | 24.76247 | 11416 ft | 350 kts | 59° |
| 2026-05-07 18:19 | 60.19085 | 24.80531 | 10995 ft | 346 kts | 60° |
| 2026-05-07 18:19 | 60.20215 | 24.84735 | 10581 ft | 343 kts | 60° |
| 2026-05-07 18:19 | 60.21321 | 24.88863 | 10352 ft | 325 kts | 60° |
| 2026-05-07 18:19 | 60.22351 | 24.92725 | 10227 ft | 303 kts | 60° |
| 2026-05-07 18:20 | 60.23315 | 24.96350 | 10111 ft | 290 kts | 60° |
| 2026-05-07 18:20 | 60.24252 | 24.99873 | 9909 ft | 284 kts | 60° |
| 2026-05-07 18:20 | 60.25175 | 25.03330 | 9563 ft | 282 kts | 60° |
| 2026-05-07 18:20 | 60.26186 | 25.06699 | 9187 ft | 278 kts | 46° |
| 2026-05-07 18:21 | 60.27719 | 25.08894 | 8826 ft | 270 kts | 18° |
| 2026-05-07 18:21 | 60.29511 | 25.09851 | 8498 ft | 266 kts | 11° |
| 2026-05-07 18:21 | 60.31289 | 25.10664 | 8162 ft | 264 kts | 11° |
| 2026-05-07 18:21 | 60.33056 | 25.11495 | 7829 ft | 261 kts | 12° |
| 2026-05-07 18:22 | 60.34824 | 25.12177 | 7478 ft | 258 kts | 1° |
| 2026-05-07 18:22 | 60.36007 | 25.11962 | 7250 ft | 256 kts | 346° |
| 2026-05-07 18:22 | 60.38145 | 25.10130 | 6837 ft | 250 kts | 333° |
| 2026-05-07 18:22 | 60.39678 | 25.08524 | 6593 ft | 243 kts | 333° |
| 2026-05-07 18:23 | 60.41152 | 25.06976 | 6301 ft | 240 kts | 333° |
| 2026-05-07 18:23 | 60.42638 | 25.05430 | 6020 ft | 236 kts | 333° |
| 2026-05-07 18:23 | 60.44066 | 25.03955 | 5786 ft | 230 kts | 333° |
| 2026-05-07 18:23 | 60.45484 | 25.02492 | 5449 ft | 230 kts | 333° |
| 2026-05-07 18:24 | 60.46912 | 25.01022 | 4993 ft | 234 kts | 333° |
| 2026-05-07 18:24 | 60.48339 | 24.99444 | 4525 ft | 235 kts | 323° |
| 2026-05-07 18:24 | 60.49239 | 24.96858 | 4137 ft | 228 kts | 283° |
| 2026-05-07 18:24 | 60.49075 | 24.93753 | 3826 ft | 228 kts | 243° |
| 2026-05-07 18:25 | 60.48160 | 24.91193 | 3498 ft | 221 kts | 233° |
| 2026-05-07 18:25 | 60.47249 | 24.88718 | 3155 ft | 220 kts | 237° |
| 2026-05-07 18:25 | 60.46426 | 24.86094 | 2809 ft | 220 kts | 240° |
| 2026-05-07 18:25 | 60.45550 | 24.83609 | 2432 ft | 215 kts | 219° |
| 2026-05-07 18:26 | 60.44212 | 24.82679 | 2145 ft | 204 kts | 178° |
| 2026-05-07 18:26 | 60.43038 | 24.83861 | 2003 ft | 189 kts | 135° |
| 2026-05-07 18:26 | 60.42158 | 24.85823 | 2014 ft | 188 kts | 136° |
| 2026-05-07 18:26 | 60.41172 | 24.87553 | 1992 ft | 187 kts | 143° |
| 2026-05-07 18:27 | 60.40105 | 24.89024 | 1808 ft | 185 kts | 149° |
| 2026-05-07 18:27 | 60.39034 | 24.90303 | 1573 ft | 173 kts | 152° |
| 2026-05-07 18:27 | 60.38000 | 24.91394 | 1334 ft | 159 kts | 155° |
| 2026-05-07 18:27 | 60.37057 | 24.92340 | 1094 ft | 144 kts | 155° |
| 2026-05-07 18:28 | 60.36198 | 24.93211 | 898 ft | 136 kts | 155° |
| 2026-05-07 18:28 | 60.35358 | 24.94079 | 742 ft | 138 kts | 154° |
| 2026-05-07 18:28 | 60.34520 | 24.94949 | 633 ft | 135 kts | 156° |
| 2026-05-07 18:28 | 60.33703 | 24.95792 | 443 ft | 130 kts | 155° |
| 2026-05-07 18:29 | 60.32902 | 24.96596 | 237 ft | 126 kts | 155° |
| 2026-05-07 18:29 | 60.32178 | 24.97327 | 175 ft | 103 kts | 155° |
| 2026-05-07 18:29 | 60.31660 | 24.97840 | 188 ft | 66 kts | 154° |
| 2026-05-07 18:29 | 60.31319 | 24.98195 | 184 ft | 48 kts | 153° |
| 2026-05-07 18:30 | 60.31088 | 24.98434 | 179 ft | 25 kts | 165° |
| 2026-05-07 18:30 | 60.30988 | 24.98356 | 181 ft | 10 kts | 235° |
| 2026-05-07 18:30 | 60.30975 | 24.98249 | 181 ft | 5 kts | 290° |
| 2026-05-07 18:30 | 60.31002 | 24.98191 | 181 ft | 6 kts | 326° |
| 2026-05-07 18:31 | 60.31045 | 24.98146 | 182 ft | 7 kts | 333° |
| 2026-05-07 18:31 | 60.31096 | 24.98094 | 183 ft | 10 kts | 333° |
| 2026-05-07 18:31 | 60.31172 | 24.98016 | 184 ft | 14 kts | 333° |
| 2026-05-07 18:31 | 60.31273 | 24.97914 | 184 ft | 15 kts | 333° |
| 2026-05-07 18:32 | 60.31364 | 24.97820 | 185 ft | 2 kts | 327° |
| 2026-05-07 18:32 | 60.31383 | 24.97721 | 186 ft | 14 kts | 273° |